FDX506 EHAM-EGKK
Flight info
| Callsign | FDX506 |
|---|---|
| Flight time | 1h 2m |
| Altitude | 24000 |
| Route | IDRID L980 ABNED Z344 AMRIV Q63 ARREK Y4 TEBRA |
| Aircraft | DH8D/M-SDE2E3FGRY/H |
Departure
| Time | 2026-05-06 13:32 |
|---|---|
| Airport | Amsterdam Airport Schiphol (EHAM) |
Arrival
| Time | 2026-05-06 14:34 |
|---|---|
| Airport | London Gatwick Airport (EGKK) |
| Time | Latitude | Longitude | Altitude | Speed | Heading |
|---|---|---|---|---|---|
| 2026-05-06 12:52 | 52.29610 | 4.76516 | 0 ft | 0 kts | 149° |
| 2026-05-06 13:12 | 52.29612 | 4.76515 | 0 ft | 1 kts | 149° |
| 2026-05-06 13:12 | 52.29624 | 4.76502 | 0 ft | 2 kts | 149° |
| 2026-05-06 13:13 | 52.29636 | 4.76490 | 0 ft | 2 kts | 149° |
| 2026-05-06 13:13 | 52.29646 | 4.76480 | 0 ft | 2 kts | 149° |
| 2026-05-06 13:13 | 52.29659 | 4.76468 | 0 ft | 0 kts | 149° |
| 2026-05-06 13:13 | 52.29667 | 4.76459 | 0 ft | 2 kts | 149° |
| 2026-05-06 13:14 | 52.29680 | 4.76446 | 0 ft | 2 kts | 149° |
| 2026-05-06 13:14 | 52.29692 | 4.76435 | -1 ft | 0 kts | 149° |
| 2026-05-06 13:14 | 52.29697 | 4.76426 | -1 ft | 1 kts | 109° |
| 2026-05-06 13:14 | 52.29697 | 4.76412 | -1 ft | 0 kts | 55° |
| 2026-05-06 13:15 | 52.29703 | 4.76435 | -1 ft | 5 kts | 62° |
| 2026-05-06 13:15 | 52.29715 | 4.76470 | -1 ft | 1 kts | 62° |
| 2026-05-06 13:15 | 52.29714 | 4.76467 | -1 ft | 2 kts | 58° |
| 2026-05-06 13:15 | 52.29706 | 4.76446 | -1 ft | 2 kts | 57° |
| 2026-05-06 13:16 | 52.29697 | 4.76425 | -1 ft | 2 kts | 57° |
| 2026-05-06 13:16 | 52.29689 | 4.76405 | -1 ft | 2 kts | 57° |
| 2026-05-06 13:16 | 52.29681 | 4.76384 | -1 ft | 2 kts | 57° |
| 2026-05-06 13:16 | 52.29676 | 4.76370 | -1 ft | 0 kts | 57° |
| 2026-05-06 13:18 | 52.29707 | 4.76367 | -2 ft | 8 kts | 284° |
| 2026-05-06 13:18 | 52.29698 | 4.76340 | -2 ft | 5 kts | 212° |
| 2026-05-06 13:19 | 52.29677 | 4.76312 | -2 ft | 0 kts | 225° |
| 2026-05-06 13:20 | 52.29675 | 4.76308 | -2 ft | 2 kts | 226° |
| 2026-05-06 13:20 | 52.29656 | 4.76274 | -1 ft | 5 kts | 230° |
| 2026-05-06 13:21 | 52.29623 | 4.76195 | -1 ft | 10 kts | 236° |
| 2026-05-06 13:21 | 52.29606 | 4.76155 | -1 ft | 0 kts | 237° |
| 2026-05-06 13:21 | 52.29596 | 4.76129 | -1 ft | 7 kts | 237° |
| 2026-05-06 13:22 | 52.29552 | 4.76009 | -2 ft | 15 kts | 241° |
| 2026-05-06 13:22 | 52.29506 | 4.75841 | -2 ft | 18 kts | 249° |
| 2026-05-06 13:22 | 52.29450 | 4.75649 | -2 ft | 17 kts | 240° |
| 2026-05-06 13:22 | 52.29441 | 4.75590 | -2 ft | 6 kts | 274° |
| 2026-05-06 13:23 | 52.29445 | 4.75568 | -2 ft | 0 kts | 299° |
| 2026-05-06 13:27 | 52.29451 | 4.75556 | -2 ft | 4 kts | 311° |
| 2026-05-06 13:27 | 52.29494 | 4.75499 | -2 ft | 14 kts | 326° |
| 2026-05-06 13:27 | 52.29579 | 4.75409 | -2 ft | 15 kts | 328° |
| 2026-05-06 13:27 | 52.29649 | 4.75341 | -2 ft | 0 kts | 329° |
| 2026-05-06 13:28 | 52.29712 | 4.75293 | 0 ft | 21 kts | 340° |
| 2026-05-06 13:28 | 52.29877 | 4.75140 | 4 ft | 33 kts | 314° |
| 2026-05-06 13:29 | 52.30063 | 4.74794 | 2 ft | 39 kts | 310° |
| 2026-05-06 13:29 | 52.30222 | 4.74486 | -5 ft | 30 kts | 314° |
| 2026-05-06 13:29 | 52.30345 | 4.74253 | -10 ft | 24 kts | 308° |
| 2026-05-06 13:29 | 52.30409 | 4.74049 | -9 ft | 17 kts | 267° |
| 2026-05-06 13:30 | 52.30408 | 4.73877 | -8 ft | 14 kts | 278° |
| 2026-05-06 13:30 | 52.30456 | 4.73769 | -7 ft | 10 kts | 354° |
| 2026-05-06 13:30 | 52.30495 | 4.73768 | -7 ft | 0 kts | 1° |
| 2026-05-06 13:31 | 52.30527 | 4.73770 | -7 ft | 18 kts | 3° |
| 2026-05-06 13:31 | 52.31010 | 4.73819 | -5 ft | 112 kts | 2° |
| 2026-05-06 13:31 | 52.32008 | 4.73916 | 1 ft | 170 kts | 4° |
| 2026-05-06 13:31 | 52.33223 | 4.73825 | 518 ft | 179 kts | 349° |
| 2026-05-06 13:32 | 52.34405 | 4.73128 | 1365 ft | 180 kts | 346° |
| 2026-05-06 13:32 | 52.35565 | 4.72445 | 2248 ft | 181 kts | 345° |
| 2026-05-06 13:32 | 52.36732 | 4.71729 | 3048 ft | 185 kts | 345° |
| 2026-05-06 13:32 | 52.37913 | 4.70875 | 3855 ft | 192 kts | 328° |
| 2026-05-06 13:33 | 52.38560 | 4.68950 | 4614 ft | 206 kts | 278° |
| 2026-05-06 13:33 | 52.38147 | 4.66721 | 5422 ft | 211 kts | 239° |
| 2026-05-06 13:33 | 52.37324 | 4.64714 | 6300 ft | 212 kts | 238° |
| 2026-05-06 13:33 | 52.36533 | 4.62677 | 7154 ft | 213 kts | 240° |
| 2026-05-06 13:34 | 52.35766 | 4.60601 | 8056 ft | 214 kts | 241° |
| 2026-05-06 13:34 | 52.35025 | 4.58517 | 8888 ft | 216 kts | 242° |
| 2026-05-06 13:34 | 52.34291 | 4.56389 | 9701 ft | 216 kts | 243° |
| 2026-05-06 13:34 | 52.33556 | 4.54211 | 10500 ft | 217 kts | 243° |
| 2026-05-06 13:35 | 52.32838 | 4.52061 | 11260 ft | 217 kts | 244° |
| 2026-05-06 13:35 | 52.32119 | 4.49881 | 11842 ft | 218 kts | 244° |
| 2026-05-06 13:35 | 52.31402 | 4.47681 | 12489 ft | 219 kts | 244° |
| 2026-05-06 13:35 | 52.30680 | 4.45450 | 13109 ft | 221 kts | 245° |
| 2026-05-06 13:36 | 52.29958 | 4.43211 | 13698 ft | 221 kts | 245° |
| 2026-05-06 13:36 | 52.29236 | 4.40962 | 14283 ft | 223 kts | 245° |
| 2026-05-06 13:36 | 52.28509 | 4.38698 | 14791 ft | 225 kts | 244° |
| 2026-05-06 13:36 | 52.27777 | 4.36410 | 15319 ft | 227 kts | 245° |
| 2026-05-06 13:37 | 52.27030 | 4.34077 | 15829 ft | 230 kts | 244° |
| 2026-05-06 13:37 | 52.26283 | 4.31741 | 16309 ft | 232 kts | 244° |
| 2026-05-06 13:37 | 52.25531 | 4.29388 | 16770 ft | 234 kts | 244° |
| 2026-05-06 13:37 | 52.24775 | 4.27025 | 17218 ft | 235 kts | 244° |
| 2026-05-06 13:38 | 52.24015 | 4.24652 | 17705 ft | 236 kts | 243° |
| 2026-05-06 13:38 | 52.23251 | 4.22269 | 18108 ft | 238 kts | 243° |
| 2026-05-06 13:38 | 52.22487 | 4.19884 | 18530 ft | 240 kts | 243° |
| 2026-05-06 13:38 | 52.21711 | 4.17464 | 18949 ft | 240 kts | 243° |
| 2026-05-06 13:39 | 52.20925 | 4.15018 | 19369 ft | 242 kts | 243° |
| 2026-05-06 13:39 | 52.20150 | 4.12603 | 19769 ft | 243 kts | 243° |
| 2026-05-06 13:39 | 52.19356 | 4.10136 | 20147 ft | 245 kts | 243° |
| 2026-05-06 13:39 | 52.18564 | 4.07675 | 20528 ft | 245 kts | 243° |
| 2026-05-06 13:40 | 52.17767 | 4.05204 | 20896 ft | 246 kts | 243° |
| 2026-05-06 13:40 | 52.16969 | 4.02729 | 21222 ft | 248 kts | 243° |
| 2026-05-06 13:40 | 52.16164 | 4.00234 | 21542 ft | 249 kts | 243° |
| 2026-05-06 13:40 | 52.15353 | 3.97724 | 21847 ft | 250 kts | 243° |
| 2026-05-06 13:41 | 52.14537 | 3.95203 | 22161 ft | 250 kts | 243° |
| 2026-05-06 13:41 | 52.13716 | 3.92669 | 22420 ft | 252 kts | 243° |
| 2026-05-06 13:41 | 52.12905 | 3.90165 | 22708 ft | 253 kts | 243° |
| 2026-05-06 13:41 | 52.12083 | 3.87632 | 22995 ft | 253 kts | 243° |
| 2026-05-06 13:42 | 52.11256 | 3.85085 | 23255 ft | 254 kts | 243° |
| 2026-05-06 13:42 | 52.10426 | 3.82534 | 23461 ft | 256 kts | 242° |
| 2026-05-06 13:42 | 52.09592 | 3.79970 | 23731 ft | 256 kts | 242° |
| 2026-05-06 13:42 | 52.08756 | 3.77404 | 23992 ft | 256 kts | 242° |
| 2026-05-06 13:43 | 52.07911 | 3.74813 | 24079 ft | 264 kts | 242° |
| 2026-05-06 13:43 | 52.07025 | 3.72098 | 24045 ft | 276 kts | 242° |
| 2026-05-06 13:43 | 52.06103 | 3.69275 | 23968 ft | 289 kts | 242° |
| 2026-05-06 13:43 | 52.05135 | 3.66317 | 23920 ft | 299 kts | 242° |
| 2026-05-06 13:44 | 52.04137 | 3.63272 | 23917 ft | 307 kts | 242° |
| 2026-05-06 13:44 | 52.03133 | 3.60209 | 23915 ft | 313 kts | 243° |
| 2026-05-06 13:44 | 52.02097 | 3.57053 | 23914 ft | 319 kts | 243° |
| 2026-05-06 13:44 | 52.01035 | 3.53825 | 23918 ft | 323 kts | 243° |
| 2026-05-06 13:45 | 51.99957 | 3.50560 | 23916 ft | 327 kts | 242° |
| 2026-05-06 13:45 | 51.97360 | 3.44434 | 23918 ft | 332 kts | 234° |
| 2026-05-06 13:45 | 51.95988 | 3.41420 | 23918 ft | 333 kts | 234° |
| 2026-05-06 13:46 | 51.94586 | 3.38340 | 23919 ft | 335 kts | 234° |
| 2026-05-06 13:46 | 51.93198 | 3.35289 | 23917 ft | 336 kts | 234° |
| 2026-05-06 13:46 | 51.91829 | 3.32279 | 23920 ft | 337 kts | 233° |
| 2026-05-06 13:46 | 51.90422 | 3.29185 | 23920 ft | 337 kts | 233° |
| 2026-05-06 13:47 | 51.89036 | 3.26141 | 23920 ft | 337 kts | 234° |
| 2026-05-06 13:47 | 51.87646 | 3.23088 | 23919 ft | 338 kts | 234° |
| 2026-05-06 13:47 | 51.86244 | 3.20012 | 23919 ft | 338 kts | 234° |
| 2026-05-06 13:47 | 51.84871 | 3.16883 | 23917 ft | 338 kts | 238° |
| 2026-05-06 13:48 | 51.83749 | 3.13542 | 23927 ft | 338 kts | 243° |
| 2026-05-06 13:48 | 51.82681 | 3.10127 | 23930 ft | 338 kts | 244° |
| 2026-05-06 13:48 | 51.81627 | 3.06759 | 23926 ft | 338 kts | 243° |
| 2026-05-06 13:48 | 51.80552 | 3.03335 | 23923 ft | 338 kts | 243° |
| 2026-05-06 13:49 | 51.79481 | 2.99935 | 23926 ft | 338 kts | 243° |
| 2026-05-06 13:49 | 51.78422 | 2.96580 | 23924 ft | 338 kts | 243° |
| 2026-05-06 13:49 | 51.77333 | 2.93141 | 23921 ft | 339 kts | 243° |
| 2026-05-06 13:49 | 51.76266 | 2.89778 | 23923 ft | 339 kts | 243° |
| 2026-05-06 13:50 | 51.75185 | 2.86377 | 23926 ft | 339 kts | 243° |
| 2026-05-06 13:50 | 51.74105 | 2.82987 | 23922 ft | 339 kts | 243° |
| 2026-05-06 13:50 | 51.73029 | 2.79616 | 23926 ft | 339 kts | 243° |
| 2026-05-06 13:50 | 51.71946 | 2.76225 | 23922 ft | 339 kts | 243° |
| 2026-05-06 13:51 | 51.70854 | 2.72815 | 23928 ft | 339 kts | 243° |
| 2026-05-06 13:51 | 51.69772 | 2.69442 | 23929 ft | 339 kts | 243° |
| 2026-05-06 13:51 | 51.68840 | 2.65946 | 23905 ft | 339 kts | 255° |
| 2026-05-06 13:51 | 51.68430 | 2.62200 | 23925 ft | 338 kts | 262° |
| 2026-05-06 13:52 | 51.68103 | 2.58456 | 23930 ft | 338 kts | 262° |
| 2026-05-06 13:52 | 51.67775 | 2.54677 | 23932 ft | 338 kts | 262° |
| 2026-05-06 13:52 | 51.67445 | 2.50923 | 23930 ft | 338 kts | 262° |
| 2026-05-06 13:52 | 51.67111 | 2.47167 | 23928 ft | 338 kts | 262° |
| 2026-05-06 13:53 | 51.66772 | 2.43396 | 23929 ft | 338 kts | 262° |
| 2026-05-06 13:53 | 51.66433 | 2.39645 | 23930 ft | 338 kts | 262° |
| 2026-05-06 13:53 | 51.66090 | 2.35889 | 23933 ft | 338 kts | 262° |
| 2026-05-06 13:53 | 51.65742 | 2.32095 | 23931 ft | 338 kts | 261° |
| 2026-05-06 13:54 | 51.65400 | 2.28384 | 23929 ft | 339 kts | 261° |
| 2026-05-06 13:54 | 51.65050 | 2.24605 | 23936 ft | 339 kts | 261° |
| 2026-05-06 13:54 | 51.64693 | 2.20777 | 23935 ft | 339 kts | 261° |
| 2026-05-06 13:54 | 51.64341 | 2.17010 | 23935 ft | 338 kts | 261° |
| 2026-05-06 13:55 | 51.63990 | 2.13258 | 23935 ft | 338 kts | 261° |
| 2026-05-06 13:55 | 51.63636 | 2.09506 | 23937 ft | 338 kts | 261° |
| 2026-05-06 13:55 | 51.63288 | 2.05739 | 23936 ft | 338 kts | 261° |
| 2026-05-06 13:55 | 51.62941 | 2.01972 | 23937 ft | 338 kts | 261° |
| 2026-05-06 13:56 | 51.62595 | 1.98221 | 23937 ft | 338 kts | 261° |
| 2026-05-06 13:56 | 51.62246 | 1.94473 | 23938 ft | 338 kts | 261° |
| 2026-05-06 13:56 | 51.61896 | 1.90718 | 23940 ft | 338 kts | 261° |
| 2026-05-06 13:56 | 51.61543 | 1.86950 | 23937 ft | 338 kts | 261° |
| 2026-05-06 13:57 | 51.60903 | 1.83343 | 23908 ft | 338 kts | 243° |
| 2026-05-06 13:57 | 51.59505 | 1.80330 | 23952 ft | 337 kts | 230° |
| 2026-05-06 13:57 | 51.57946 | 1.77480 | 23948 ft | 338 kts | 229° |
| 2026-05-06 13:57 | 51.56376 | 1.74636 | 23945 ft | 338 kts | 229° |
| 2026-05-06 13:58 | 51.54798 | 1.71783 | 23940 ft | 339 kts | 229° |
| 2026-05-06 13:58 | 51.53234 | 1.68955 | 23938 ft | 339 kts | 230° |
| 2026-05-06 13:58 | 51.51670 | 1.66126 | 23938 ft | 339 kts | 230° |
| 2026-05-06 13:58 | 51.50106 | 1.63300 | 23935 ft | 335 kts | 230° |
| 2026-05-06 13:59 | 51.48789 | 1.60399 | 23899 ft | 308 kts | 244° |
| 2026-05-06 13:59 | 51.48018 | 1.57347 | 23912 ft | 282 kts | 250° |
| 2026-05-06 13:59 | 51.47358 | 1.54505 | 23911 ft | 257 kts | 250° |
| 2026-05-06 13:59 | 51.46768 | 1.51949 | 23797 ft | 237 kts | 250° |
| 2026-05-06 14:00 | 51.46189 | 1.49444 | 23188 ft | 236 kts | 250° |
| 2026-05-06 14:00 | 51.45622 | 1.46984 | 22547 ft | 237 kts | 250° |
| 2026-05-06 14:00 | 51.45048 | 1.44496 | 21900 ft | 238 kts | 250° |
| 2026-05-06 14:00 | 51.44477 | 1.42023 | 21263 ft | 239 kts | 251° |
| 2026-05-06 14:01 | 51.43901 | 1.39534 | 20623 ft | 240 kts | 251° |
| 2026-05-06 14:01 | 51.43105 | 1.37175 | 19957 ft | 242 kts | 228° |
| 2026-05-06 14:01 | 51.41818 | 1.35461 | 19334 ft | 244 kts | 219° |
| 2026-05-06 14:01 | 51.40424 | 1.33824 | 18687 ft | 245 kts | 218° |
| 2026-05-06 14:02 | 51.39051 | 1.32218 | 18055 ft | 247 kts | 218° |
| 2026-05-06 14:02 | 51.37667 | 1.30596 | 17424 ft | 249 kts | 218° |
| 2026-05-06 14:02 | 51.36261 | 1.28943 | 16787 ft | 251 kts | 218° |
| 2026-05-06 14:02 | 51.34838 | 1.27270 | 16149 ft | 254 kts | 218° |
| 2026-05-06 14:03 | 51.33387 | 1.25557 | 15523 ft | 266 kts | 218° |
| 2026-05-06 14:03 | 51.31870 | 1.23755 | 14915 ft | 283 kts | 218° |
| 2026-05-06 14:03 | 51.30232 | 1.21814 | 14290 ft | 296 kts | 218° |
| 2026-05-06 14:03 | 51.28548 | 1.19826 | 13697 ft | 305 kts | 218° |
| 2026-05-06 14:04 | 51.26878 | 1.17862 | 13706 ft | 292 kts | 218° |
| 2026-05-06 14:04 | 51.25254 | 1.15957 | 13719 ft | 282 kts | 218° |
| 2026-05-06 14:04 | 51.23691 | 1.14122 | 13452 ft | 284 kts | 218° |
| 2026-05-06 14:04 | 51.22072 | 1.12218 | 12963 ft | 292 kts | 218° |
| 2026-05-06 14:05 | 51.20399 | 1.10251 | 12458 ft | 299 kts | 218° |
| 2026-05-06 14:05 | 51.18709 | 1.08268 | 11907 ft | 306 kts | 218° |
| 2026-05-06 14:05 | 51.16988 | 1.06252 | 11532 ft | 305 kts | 218° |
| 2026-05-06 14:05 | 51.15280 | 1.04256 | 11305 ft | 299 kts | 217° |
| 2026-05-06 14:06 | 51.13614 | 1.02310 | 11133 ft | 293 kts | 217° |
| 2026-05-06 14:06 | 51.11974 | 1.00396 | 10980 ft | 293 kts | 218° |
| 2026-05-06 14:06 | 51.10316 | 0.98458 | 10820 ft | 295 kts | 218° |
| 2026-05-06 14:06 | 51.08636 | 0.96497 | 10665 ft | 297 kts | 218° |
| 2026-05-06 14:07 | 51.06984 | 0.94569 | 10512 ft | 298 kts | 218° |
| 2026-05-06 14:07 | 51.05512 | 0.92263 | 10330 ft | 295 kts | 238° |
| 2026-05-06 14:07 | 51.04567 | 0.89347 | 10199 ft | 294 kts | 246° |
| 2026-05-06 14:07 | 51.03700 | 0.86421 | 10044 ft | 295 kts | 247° |
| 2026-05-06 14:08 | 51.02821 | 0.83438 | 9890 ft | 295 kts | 247° |
| 2026-05-06 14:08 | 51.01954 | 0.80505 | 9743 ft | 295 kts | 247° |
| 2026-05-06 14:08 | 51.01071 | 0.77530 | 9580 ft | 295 kts | 246° |
| 2026-05-06 14:08 | 51.00198 | 0.74595 | 9421 ft | 295 kts | 246° |
| 2026-05-06 14:09 | 50.99304 | 0.71604 | 9267 ft | 294 kts | 246° |
| 2026-05-06 14:09 | 50.98432 | 0.68690 | 9128 ft | 293 kts | 246° |
| 2026-05-06 14:09 | 50.97555 | 0.65768 | 8968 ft | 292 kts | 246° |
| 2026-05-06 14:09 | 50.96681 | 0.62857 | 8807 ft | 291 kts | 246° |
| 2026-05-06 14:10 | 50.95798 | 0.59929 | 8658 ft | 289 kts | 246° |
| 2026-05-06 14:10 | 50.94941 | 0.57090 | 8499 ft | 285 kts | 246° |
| 2026-05-06 14:10 | 50.94090 | 0.54277 | 8347 ft | 279 kts | 246° |
| 2026-05-06 14:10 | 50.93242 | 0.51478 | 8203 ft | 274 kts | 246° |
| 2026-05-06 14:11 | 50.92424 | 0.48779 | 8062 ft | 270 kts | 246° |
| 2026-05-06 14:11 | 50.91641 | 0.46093 | 7892 ft | 267 kts | 251° |
| 2026-05-06 14:11 | 50.91482 | 0.43250 | 7768 ft | 257 kts | 282° |
| 2026-05-06 14:11 | 50.91930 | 0.40521 | 7642 ft | 250 kts | 288° |
| 2026-05-06 14:12 | 50.92391 | 0.37954 | 7495 ft | 232 kts | 288° |
| 2026-05-06 14:12 | 50.92823 | 0.35576 | 7372 ft | 212 kts | 288° |
| 2026-05-06 14:12 | 50.93224 | 0.33391 | 7281 ft | 206 kts | 288° |
| 2026-05-06 14:12 | 50.93636 | 0.31188 | 7183 ft | 209 kts | 288° |
| 2026-05-06 14:13 | 50.94052 | 0.28946 | 7068 ft | 212 kts | 288° |
| 2026-05-06 14:13 | 50.94466 | 0.26697 | 6958 ft | 214 kts | 288° |
| 2026-05-06 14:13 | 50.94935 | 0.24446 | 6882 ft | 213 kts | 298° |
| 2026-05-06 14:13 | 50.95999 | 0.22923 | 6842 ft | 203 kts | 343° |
| 2026-05-06 14:14 | 50.97355 | 0.23062 | 6849 ft | 200 kts | 20° |
| 2026-05-06 14:14 | 50.98649 | 0.24018 | 6848 ft | 206 kts | 28° |
| 2026-05-06 14:14 | 50.99622 | 0.25685 | 6838 ft | 212 kts | 68° |
| 2026-05-06 14:14 | 50.99639 | 0.28038 | 6858 ft | 218 kts | 101° |
| 2026-05-06 14:15 | 50.99231 | 0.30384 | 6848 ft | 224 kts | 104° |
| 2026-05-06 14:15 | 50.98782 | 0.32806 | 6849 ft | 230 kts | 104° |
| 2026-05-06 14:15 | 50.98313 | 0.35306 | 6847 ft | 236 kts | 104° |
| 2026-05-06 14:15 | 50.97808 | 0.37795 | 6836 ft | 241 kts | 111° |
| 2026-05-06 14:16 | 50.96723 | 0.39852 | 6825 ft | 245 kts | 148° |
| 2026-05-06 14:16 | 50.95092 | 0.40427 | 6827 ft | 246 kts | 186° |
| 2026-05-06 14:16 | 50.93555 | 0.39305 | 6829 ft | 243 kts | 225° |
| 2026-05-06 14:16 | 50.92780 | 0.37004 | 6827 ft | 239 kts | 262° |
| 2026-05-06 14:17 | 50.92981 | 0.34421 | 6846 ft | 236 kts | 290° |
| 2026-05-06 14:17 | 50.93509 | 0.31929 | 6846 ft | 240 kts | 288° |
| 2026-05-06 14:17 | 50.93984 | 0.29376 | 6838 ft | 243 kts | 287° |
| 2026-05-06 14:17 | 50.94436 | 0.26755 | 6831 ft | 245 kts | 283° |
| 2026-05-06 14:18 | 50.94712 | 0.24063 | 6846 ft | 247 kts | 279° |
| 2026-05-06 14:18 | 50.94952 | 0.21355 | 6845 ft | 248 kts | 279° |
| 2026-05-06 14:18 | 50.95191 | 0.18636 | 6839 ft | 249 kts | 279° |
| 2026-05-06 14:18 | 50.95432 | 0.15905 | 6845 ft | 249 kts | 279° |
| 2026-05-06 14:19 | 50.95672 | 0.13194 | 6847 ft | 250 kts | 279° |
| 2026-05-06 14:19 | 50.95916 | 0.10434 | 6848 ft | 251 kts | 279° |
| 2026-05-06 14:19 | 50.96162 | 0.07663 | 6839 ft | 251 kts | 279° |
| 2026-05-06 14:19 | 50.96404 | 0.04929 | 6848 ft | 251 kts | 279° |
| 2026-05-06 14:20 | 50.96649 | 0.02160 | 6848 ft | 252 kts | 279° |
| 2026-05-06 14:20 | 50.96892 | -0.00588 | 6852 ft | 252 kts | 279° |
| 2026-05-06 14:20 | 50.97142 | -0.03408 | 6613 ft | 263 kts | 279° |
| 2026-05-06 14:20 | 50.97404 | -0.06367 | 6143 ft | 270 kts | 279° |
| 2026-05-06 14:21 | 50.97654 | -0.09281 | 5632 ft | 263 kts | 279° |
| 2026-05-06 14:21 | 50.97899 | -0.12140 | 5121 ft | 257 kts | 279° |
| 2026-05-06 14:21 | 50.98136 | -0.14903 | 4616 ft | 252 kts | 280° |
| 2026-05-06 14:21 | 50.98374 | -0.17669 | 4102 ft | 248 kts | 280° |
| 2026-05-06 14:22 | 50.98663 | -0.20305 | 3603 ft | 244 kts | 285° |
| 2026-05-06 14:22 | 50.99064 | -0.22911 | 3169 ft | 237 kts | 287° |
| 2026-05-06 14:22 | 50.99453 | -0.25384 | 3014 ft | 219 kts | 287° |
| 2026-05-06 14:22 | 50.99802 | -0.27620 | 2957 ft | 196 kts | 288° |
| 2026-05-06 14:23 | 51.00136 | -0.29709 | 2954 ft | 193 kts | 288° |
| 2026-05-06 14:23 | 51.00389 | -0.31791 | 2949 ft | 194 kts | 278° |
| 2026-05-06 14:23 | 51.00445 | -0.33925 | 2949 ft | 193 kts | 276° |
| 2026-05-06 14:23 | 51.00504 | -0.36068 | 2949 ft | 191 kts | 276° |
| 2026-05-06 14:24 | 51.00562 | -0.38177 | 2953 ft | 190 kts | 276° |
| 2026-05-06 14:24 | 51.00619 | -0.40258 | 2950 ft | 188 kts | 276° |
| 2026-05-06 14:24 | 51.00673 | -0.42341 | 2950 ft | 188 kts | 276° |
| 2026-05-06 14:24 | 51.00748 | -0.44427 | 2949 ft | 188 kts | 283° |
| 2026-05-06 14:25 | 51.01320 | -0.46192 | 2957 ft | 176 kts | 323° |
| 2026-05-06 14:25 | 51.02394 | -0.47029 | 2986 ft | 171 kts | 343° |
| 2026-05-06 14:25 | 51.03513 | -0.47670 | 2964 ft | 168 kts | 342° |
| 2026-05-06 14:25 | 51.04611 | -0.48307 | 2954 ft | 164 kts | 342° |
| 2026-05-06 14:26 | 51.05670 | -0.48913 | 2951 ft | 160 kts | 342° |
| 2026-05-06 14:26 | 51.06721 | -0.49519 | 2949 ft | 157 kts | 342° |
| 2026-05-06 14:26 | 51.07742 | -0.50107 | 2947 ft | 153 kts | 342° |
| 2026-05-06 14:26 | 51.08736 | -0.50683 | 2946 ft | 150 kts | 342° |
| 2026-05-06 14:27 | 51.09718 | -0.51251 | 2946 ft | 147 kts | 342° |
| 2026-05-06 14:27 | 51.10670 | -0.51807 | 2946 ft | 143 kts | 342° |
| 2026-05-06 14:27 | 51.11590 | -0.52350 | 2946 ft | 140 kts | 342° |
| 2026-05-06 14:27 | 51.12501 | -0.52895 | 2946 ft | 136 kts | 342° |
| 2026-05-06 14:28 | 51.13253 | -0.53764 | 2930 ft | 137 kts | 303° |
| 2026-05-06 14:28 | 51.13309 | -0.55249 | 2907 ft | 140 kts | 250° |
| 2026-05-06 14:28 | 51.12566 | -0.56312 | 2904 ft | 150 kts | 197° |
| 2026-05-06 14:28 | 51.11502 | -0.56156 | 2955 ft | 164 kts | 150° |
| 2026-05-06 14:29 | 51.10748 | -0.54826 | 2958 ft | 161 kts | 105° |
| 2026-05-06 14:29 | 51.10715 | -0.53079 | 2986 ft | 160 kts | 78° |
| 2026-05-06 14:29 | 51.10833 | -0.51205 | 3097 ft | 172 kts | 84° |
| 2026-05-06 14:29 | 51.10355 | -0.49456 | 2681 ft | 170 kts | 136° |
| 2026-05-06 14:30 | 51.09974 | -0.48037 | 2535 ft | 128 kts | 86° |
| 2026-05-06 14:30 | 51.10054 | -0.46640 | 1890 ft | 141 kts | 92° |
| 2026-05-06 14:30 | 51.10290 | -0.45260 | 1677 ft | 124 kts | 59° |
| 2026-05-06 14:30 | 51.10557 | -0.43974 | 2087 ft | 123 kts | 55° |
| 2026-05-06 14:31 | 51.10829 | -0.42584 | 2422 ft | 148 kts | 85° |
| 2026-05-06 14:31 | 51.10918 | -0.40843 | 2693 ft | 169 kts | 77° |
| 2026-05-06 14:31 | 51.11284 | -0.39060 | 3141 ft | 164 kts | 60° |
| 2026-05-06 14:31 | 51.11795 | -0.37537 | 3155 ft | 163 kts | 65° |
| 2026-05-06 14:32 | 51.12219 | -0.35828 | 3236 ft | 169 kts | 67° |
| 2026-05-06 14:32 | 51.12645 | -0.34029 | 3147 ft | 178 kts | 66° |
| 2026-05-06 14:32 | 51.12891 | -0.32117 | 3010 ft | 172 kts | 80° |
| 2026-05-06 14:32 | 51.13041 | -0.30236 | 2470 ft | 171 kts | 76° |
| 2026-05-06 14:33 | 51.13336 | -0.28444 | 2032 ft | 162 kts | 66° |
| 2026-05-06 14:33 | 51.13675 | -0.26782 | 1640 ft | 157 kts | 73° |
| 2026-05-06 14:33 | 51.13963 | -0.25112 | 1150 ft | 156 kts | 72° |
| 2026-05-06 14:33 | 51.14208 | -0.23424 | 688 ft | 153 kts | 74° |
| 2026-05-06 14:34 | 51.14430 | -0.21794 | 333 ft | 147 kts | 72° |
| 2026-05-06 14:34 | 51.14649 | -0.20205 | 216 ft | 136 kts | 72° |
| 2026-05-06 14:34 | 51.14841 | -0.18923 | 207 ft | 94 kts | 80° |
| 2026-05-06 14:34 | 51.14996 | -0.18378 | 207 ft | 35 kts | 33° |
| 2026-05-06 14:35 | 51.15044 | -0.18318 | 207 ft | 0 kts | 46° |
| 2026-05-06 14:36 | 51.15046 | -0.18315 | 207 ft | 0 kts | 46° |
| 2026-05-06 14:37 | 51.15047 | -0.18312 | 207 ft | 2 kts | 46° |
| 2026-05-06 14:38 | 51.15054 | -0.18302 | 207 ft | 8 kts | 47° |
| 2026-05-06 14:38 | 51.15145 | -0.18218 | 207 ft | 18 kts | 340° |
| 2026-05-06 14:38 | 51.15158 | -0.18501 | 207 ft | 22 kts | 259° |
| 2026-05-06 14:38 | 51.15167 | -0.18682 | 207 ft | 20 kts | 326° |
| 2026-05-06 14:39 | 51.15313 | -0.18740 | 207 ft | 13 kts | 349° |
| 2026-05-06 14:39 | 51.15330 | -0.18747 | 207 ft | 8 kts | 337° |
| 2026-05-06 14:39 | 51.15335 | -0.18886 | 207 ft | 17 kts | 258° |
| 2026-05-06 14:39 | 51.15330 | -0.18922 | 207 ft | 0 kts | 258° |